Time;durP1;ratioP1;P1;durP2;ratioP2;P2;SDS_P1;SDS_P2;PMS_P1;PMS_P2;Temp;Humidity;BMP_temperature;BMP_pressure;BME280_temperature;BME280_humidity;BME280_pressure;Samples;Min_cycle;Max_cycle;Signal;HPM_P1;HPM_P2
2022/11/22 10:16:11;;;;;;;;;1.75;0.00;;;;;;;;5104202;27;13423;-73
2022/11/22 10:18:45;;;;;;;;;0.00;0.00;;;;;;;;5104775;28;11446;-74
2022/11/22 10:21:12;;;;;;;;;0.00;0.00;;;;;;;;5106383;28;11469;-71
2022/11/22 10:23:38;;;;;;;;;0.00;0.00;;;;;;;;5105933;28;11533;-74
2022/11/22 10:26:21;;;;;;;;;0.00;0.00;;;;;;;;5106893;28;11449;-73
2022/11/22 10:28:53;;;;;;;;;0.00;0.00;;;;;;;;5104544;28;12227;-72
2022/11/22 10:31:25;;;;;;;;;0.00;0.00;;;;;;;;5106304;28;11443;-74
2022/11/22 10:34:10;;;;;;;;;0.00;0.00;;;;;;;;5106746;28;11531;-73
2022/11/22 10:36:45;;;;;;;;;0.00;0.00;;;;;;;;5074086;28;11460;-73
2022/11/22 10:39:20;;;;;;;;;0.00;0.00;;;;;;;;5113936;27;11557;-74
2022/11/22 10:41:57;;;;;;;;;0.00;0.00;;;;;;;;5102997;28;11432;-75
2022/11/22 10:44:34;;;;;;;;;0.00;0.00;;;;;;;;5102947;28;12168;-74
2022/11/22 10:47:26;;;;;;;;;0.00;0.00;;;;;;;;5105763;28;11426;-76
2022/11/22 10:49:51;;;;;;;;;0.00;0.00;;;;;;;;5084674;28;11447;-73
2022/11/22 10:52:22;;;;;;;;;0.00;0.00;;;;;;;;5097755;28;12121;-74
2022/11/22 10:54:48;;;;;;;;;0.00;0.00;;;;;;;;5104910;28;8856;-70
2022/11/22 10:57:29;;;;;;;;;0.00;0.00;;;;;;;;5104763;28;11434;-83
2022/11/22 11:00:01;;;;;;;;;0.00;0.00;;;;;;;;5102888;28;8792;-74
2022/11/22 11:02:38;;;;;;;;;0.00;0.00;;;;;;;;5104742;28;11574;-75
2022/11/22 11:05:06;;;;;;;;;0.00;0.00;;;;;;;;5111570;27;11394;-75
2022/11/22 11:07:32;;;;;;;;;0.00;0.00;;;;;;;;5116924;27;11586;-74
2022/11/22 11:10:01;;;;;;;;;0.00;0.00;;;;;;;;5123989;27;11460;-73
2022/11/22 11:12:32;;;;;;;;;0.00;0.00;;;;;;;;5105874;28;12191;-72
2022/11/22 11:15:04;;;;;;;;;1.00;0.00;;;;;;;;5102074;28;11482;-75
2022/11/22 11:17:32;;;;;;;;;0.00;0.00;;;;;;;;5111099;28;12269;-76
2022/11/22 11:20:01;;;;;;;;;0.25;0.00;;;;;;;;5105728;28;11560;-76
2022/11/22 11:22:29;;;;;;;;;0.75;0.00;;;;;;;;5110618;27;11390;-75
2022/11/22 11:24:55;;;;;;;;;0.00;0.00;;;;;;;;5125509;27;11415;-76
2022/11/22 11:27:20;;;;;;;;;0.00;0.00;;;;;;;;5111574;28;11432;-74
2022/11/22 11:30:02;;;;;;;;;0.00;0.00;;;;;;;;5097013;28;8946;-71
2022/11/22 11:32:28;;;;;;;;;0.50;0.00;;;;;;;;5092003;28;8819;-76
2022/11/22 11:34:59;;;;;;;;;0.00;0.00;;;;;;;;5091659;28;11457;-77
2022/11/22 11:37:35;;;;;;;;;0.25;0.00;;;;;;;;5091872;28;8787;-76
2022/11/22 11:40:01;;;;;;;;;2.00;1.00;;;;;;;;5109650;28;12163;-75
2022/11/22 11:42:30;;;;;;;;;2.50;1.00;;;;;;;;5111687;28;11394;-73
2022/11/22 11:45:14;;;;;;;;;0.00;0.00;;;;;;;;5112189;28;8820;-76
2022/11/22 11:47:39;;;;;;;;;0.00;0.00;;;;;;;;5112125;28;11538;-72
2022/11/22 11:50:15;;;;;;;;;1.00;0.00;;;;;;;;5112340;28;11545;-74
2022/11/22 11:52:48;;;;;;;;;4.75;1.50;;;;;;;;5112651;28;8785;-80
2022/11/22 11:55:15;;;;;;;;;1.75;1.75;;;;;;;;5111277;28;11475;-76
2022/11/22 11:57:42;;;;;;;;;0.25;0.25;;;;;;;;5106213;28;11439;-74
2022/11/22 12:00:17;;;;;;;;;1.50;1.50;;;;;;;;5091435;28;11436;-73
2022/11/22 12:02:45;;;;;;;;;1.00;1.00;;;;;;;;5092158;28;11511;-72
2022/11/22 12:05:13;;;;;;;;;2.75;1.00;;;;;;;;5092097;28;11426;-74
2022/11/22 12:07:43;;;;;;;;;0.75;0.75;;;;;;;;5092426;28;11459;-72
2022/11/22 12:10:47;;;;;;;;;3.50;1.75;;;;;;;;5105889;28;11504;-74
2022/11/22 12:13:13;;;;;;;;;0.00;0.00;;;;;;;;5038402;28;11456;-72
2022/11/22 12:15:47;;;;;;;;;1.00;1.00;;;;;;;;5047996;28;11415;-72
2022/11/22 12:18:26;;;;;;;;;0.75;0.75;;;;;;;;5048247;28;8937;-72
2022/11/22 12:21:10;;;;;;;;;0.50;0.25;;;;;;;;5048567;28;11395;-71
2022/11/22 12:23:40;;;;;;;;;1.00;1.00;;;;;;;;5048179;28;11369;-71
2022/11/22 12:26:05;;;;;;;;;1.00;1.00;;;;;;;;5031472;28;11888;-71
2022/11/22 12:28:31;;;;;;;;;3.50;0.00;;;;;;;;5048298;28;11478;-71
2022/11/22 12:31:03;;;;;;;;;1.00;1.00;;;;;;;;5048330;28;8805;-71
2022/11/22 12:33:55;;;;;;;;;1.25;1.25;;;;;;;;5048047;28;9645;-71
2022/11/22 12:36:24;;;;;;;;;0.00;0.00;;;;;;;;5043812;28;11528;-70
2022/11/22 12:38:51;;;;;;;;;0.00;0.00;;;;;;;;5054912;28;11508;-70
2022/11/22 12:41:19;;;;;;;;;1.25;0.50;;;;;;;;5065947;28;11361;-71
2022/11/22 12:43:44;;;;;;;;;0.75;0.00;;;;;;;;5085201;28;11455;-73
2022/11/22 12:46:17;;;;;;;;;0.75;0.75;;;;;;;;5101482;28;11453;-72
2022/11/22 12:48:53;;;;;;;;;1.00;0.25;;;;;;;;5088146;28;8780;-72
2022/11/22 12:51:18;;;;;;;;;1.75;1.25;;;;;;;;5088516;28;11450;-72
2022/11/22 12:53:44;;;;;;;;;2.00;1.00;;;;;;;;5089368;28;11492;-72
2022/11/22 12:56:15;;;;;;;;;22.00;21.00;;;;;;;;5089795;28;8777;-72
2022/11/22 12:58:52;;;;;;;;;3.75;1.00;;;;;;;;5089042;28;12369;-71
2022/11/22 13:01:26;;;;;;;;;1.50;1.00;;;;;;;;5089806;28;11472;-71
2022/11/22 13:04:05;;;;;;;;;2.00;1.00;;;;;;;;5089980;28;11527;-70
2022/11/22 13:06:44;;;;;;;;;1.50;0.00;;;;;;;;5071153;28;11485;-71
2022/11/22 13:09:13;;;;;;;;;0.00;0.00;;;;;;;;5081387;28;12271;-71
2022/11/22 13:11:46;;;;;;;;;1.50;0.50;;;;;;;;5088194;28;12236;-72
2022/11/22 13:14:14;;;;;;;;;1.00;1.00;;;;;;;;5089513;28;11463;-73
2022/11/22 13:16:39;;;;;;;;;0.25;0.25;;;;;;;;5071349;28;11455;-69
2022/11/22 13:19:06;;;;;;;;;2.00;1.00;;;;;;;;5089499;28;11426;-69
2022/11/22 13:21:34;;;;;;;;;2.00;0.00;;;;;;;;5089703;28;8901;-70
2022/11/22 13:24:11;;;;;;;;;0.50;0.50;;;;;;;;5089862;28;11406;-69
2022/11/22 13:26:49;;;;;;;;;2.00;0.25;;;;;;;;5089750;28;11488;-69
2022/11/22 13:29:26;;;;;;;;;2.00;1.00;;;;;;;;5089433;28;11532;-68
2022/11/22 13:32:02;;;;;;;;;0.00;0.00;;;;;;;;5089519;28;11507;-70
2022/11/22 13:34:28;;;;;;;;;1.75;1.75;;;;;;;;5088989;28;11915;-70
2022/11/22 13:36:53;;;;;;;;;2.00;2.00;;;;;;;;5089572;28;11414;-70
2022/11/22 13:39:20;;;;;;;;;0.00;0.00;;;;;;;;5089379;28;8822;-70
2022/11/22 13:42:00;;;;;;;;;2.50;0.25;;;;;;;;5065735;28;8800;-70
2022/11/22 13:44:32;;;;;;;;;1.00;1.00;;;;;;;;5049373;28;11408;-71
2022/11/22 13:46:59;;;;;;;;;0.50;0.50;;;;;;;;5049179;28;11423;-70
2022/11/22 13:49:44;;;;;;;;;1.00;1.00;;;;;;;;5048691;28;11423;-70
2022/11/22 13:52:15;;;;;;;;;1.25;1.00;;;;;;;;5055380;28;11450;-71
2022/11/22 13:55:00;;;;;;;;;1.50;1.50;;;;;;;;5053146;28;11445;-71
2022/11/22 13:57:33;;;;;;;;;1.00;1.00;;;;;;;;5048543;28;11419;-70
2022/11/22 14:00:11;;;;;;;;;1.00;0.25;;;;;;;;5049080;28;11611;-70
2022/11/22 14:02:55;;;;;;;;;3.50;2.00;;;;;;;;5049104;28;11399;-70
2022/11/22 14:05:36;;;;;;;;;5.00;2.00;;;;;;;;5048826;28;11420;-70
2022/11/22 14:08:02;;;;;;;;;1.00;1.00;;;;;;;;5052104;28;11575;-70
2022/11/22 14:10:27;;;;;;;;;1.50;1.00;;;;;;;;5089143;28;11399;-70
2022/11/22 14:12:59;;;;;;;;;1.50;1.50;;;;;;;;5089153;28;11434;-70
2022/11/22 14:15:30;;;;;;;;;3.50;1.50;;;;;;;;5106361;28;8817;-70
2022/11/22 14:18:13;;;;;;;;;2.50;1.00;;;;;;;;5109354;28;11409;-70
2022/11/22 14:20:46;;;;;;;;;2.00;1.00;;;;;;;;5109407;28;12159;-70
2022/11/22 14:23:25;;;;;;;;;1.00;1.00;;;;;;;;5108923;28;11582;-70
2022/11/22 14:26:08;;;;;;;;;2.50;2.50;;;;;;;;5103676;28;11451;-72
2022/11/22 14:28:33;;;;;;;;;1.00;0.75;;;;;;;;5107961;28;11573;-72
2022/11/22 14:30:59;;;;;;;;;2.75;1.00;;;;;;;;5108585;28;11519;-72
2022/11/22 14:33:25;;;;;;;;;2.00;0.00;;;;;;;;5107304;28;8840;-71
2022/11/22 14:36:05;;;;;;;;;1.00;1.00;;;;;;;;5109227;28;8914;-71
2022/11/22 14:38:40;;;;;;;;;1.00;1.00;;;;;;;;5105437;28;11421;-70
2022/11/22 14:41:24;;;;;;;;;1.50;1.00;;;;;;;;5097671;28;11441;-71
2022/11/22 14:43:51;;;;;;;;;1.00;1.00;;;;;;;;5094069;28;12177;-72
2022/11/22 14:46:20;;;;;;;;;1.75;1.75;;;;;;;;5089255;28;11471;-71
2022/11/22 14:48:51;;;;;;;;;2.00;2.00;;;;;;;;5093424;28;11430;-71
2022/11/22 14:51:23;;;;;;;;;2.00;2.00;;;;;;;;5086440;28;11547;-71
2022/11/22 14:53:58;;;;;;;;;1.00;1.00;;;;;;;;5087486;28;11609;-71
2022/11/22 14:56:36;;;;;;;;;4.00;1.50;;;;;;;;5104177;28;11426;-74
2022/11/22 14:59:20;;;;;;;;;5.50;2.00;;;;;;;;5103505;28;11453;-69
2022/11/22 15:02:04;;;;;;;;;1.00;1.00;;;;;;;;5098672;28;11442;-70
2022/11/22 15:04:46;;;;;;;;;2.00;2.00;;;;;;;;5112742;28;11429;-72
2022/11/22 15:07:29;;;;;;;;;2.00;2.00;;;;;;;;5104221;28;12142;-73
2022/11/22 15:10:13;;;;;;;;;3.75;2.00;;;;;;;;5100984;28;11455;-73
2022/11/22 15:12:48;;;;;;;;;1.00;1.00;;;;;;;;5088505;28;12183;-74
2022/11/22 15:15:34;;;;;;;;;5.00;2.00;;;;;;;;5082433;28;11477;-74
2022/11/22 15:18:14;;;;;;;;;1.00;1.00;;;;;;;;5059783;28;11427;-74
2022/11/22 15:20:40;;;;;;;;;2.00;1.00;;;;;;;;5060155;28;11427;-73
2022/11/22 15:23:14;;;;;;;;;3.50;1.25;;;;;;;;5080037;28;12260;-73
2022/11/22 15:25:40;;;;;;;;;4.75;4.00;;;;;;;;5084357;28;8794;-72
2022/11/22 15:28:13;;;;;;;;;5.00;2.00;;;;;;;;5074137;28;11433;-72
2022/11/22 15:30:38;;;;;;;;;3.00;1.25;;;;;;;;5092232;28;10904;-71
2022/11/22 15:33:13;;;;;;;;;4.50;4.50;;;;;;;;5092249;28;11441;-73
2022/11/22 15:35:50;;;;;;;;;1.25;1.00;;;;;;;;5091805;28;8814;-71
2022/11/22 15:38:16;;;;;;;;;0.25;0.25;;;;;;;;5091846;28;11409;-71
2022/11/22 15:40:43;;;;;;;;;1.75;0.00;;;;;;;;5091938;28;11700;-70
2022/11/22 15:43:11;;;;;;;;;2.00;0.00;;;;;;;;5091979;28;8790;-72
2022/11/22 15:45:40;;;;;;;;;0.00;0.00;;;;;;;;5089662;28;11404;-71
2022/11/22 15:48:08;;;;;;;;;0.00;0.00;;;;;;;;5080601;28;12163;-72
2022/11/22 15:50:33;;;;;;;;;0.50;0.00;;;;;;;;5079185;28;11444;-71
2022/11/22 15:53:28;;;;;;;;;0.75;0.00;;;;;;;;5080409;28;11504;-72
2022/11/22 15:56:11;;;;;;;;;0.00;0.00;;;;;;;;5070280;28;8822;-73
2022/11/22 15:58:37;;;;;;;;;0.00;0.00;;;;;;;;5077050;28;11414;-72
2022/11/22 16:01:04;;;;;;;;;0.00;0.00;;;;;;;;5080096;28;11527;-72
2022/11/22 16:03:37;;;;;;;;;0.25;0.00;;;;;;;;5080938;28;8960;-71
2022/11/22 16:06:03;;;;;;;;;0.00;0.00;;;;;;;;5079917;28;11451;-72
2022/11/22 16:08:29;;;;;;;;;0.75;0.00;;;;;;;;5081178;28;11427;-71
2022/11/22 16:10:54;;;;;;;;;0.00;0.00;;;;;;;;5078612;28;8799;-73
2022/11/22 16:13:19;;;;;;;;;0.75;0.00;;;;;;;;5081990;28;8897;-73
2022/11/22 16:16:03;;;;;;;;;0.00;0.00;;;;;;;;5079390;28;8914;-74
2022/11/22 16:18:28;;;;;;;;;0.00;0.00;;;;;;;;5079913;28;8812;-74
2022/11/22 16:20:58;;;;;;;;;1.00;1.00;;;;;;;;5078890;28;11408;-74
2022/11/22 16:23:24;;;;;;;;;1.00;1.00;;;;;;;;5081971;28;8828;-72
2022/11/22 16:25:51;;;;;;;;;1.75;1.00;;;;;;;;5063649;28;10944;-73
2022/11/22 16:28:33;;;;;;;;;1.00;1.00;;;;;;;;5081332;28;11435;-74
2022/11/22 16:31:19;;;;;;;;;3.00;0.75;;;;;;;;5062377;28;11455;-73
2022/11/22 16:33:44;;;;;;;;;0.25;0.25;;;;;;;;5075530;28;11423;-73
2022/11/22 16:36:12;;;;;;;;;1.25;1.00;;;;;;;;5079782;28;11524;-73
2022/11/22 16:38:38;;;;;;;;;1.00;1.00;;;;;;;;5080870;28;8805;-73
2022/11/22 16:41:04;;;;;;;;;0.25;0.25;;;;;;;;5057290;28;11422;-74
2022/11/22 16:43:33;;;;;;;;;1.25;1.25;;;;;;;;5061043;28;9558;-74
2022/11/22 16:45:59;;;;;;;;;1.00;1.00;;;;;;;;5084300;28;11559;-74
2022/11/22 16:48:25;;;;;;;;;1.50;1.50;;;;;;;;5071069;28;11513;-74
2022/11/22 16:50:58;;;;;;;;;2.50;1.75;;;;;;;;5090548;28;9374;-75
2022/11/22 16:53:25;;;;;;;;;4.75;2.00;;;;;;;;5090135;28;11449;-75
2022/11/22 16:55:50;;;;;;;;;2.00;2.00;;;;;;;;5072366;28;12170;-72
2022/11/22 16:58:17;;;;;;;;;1.75;1.75;;;;;;;;5081435;28;11508;-71
2022/11/22 17:00:43;;;;;;;;;3.25;2.00;;;;;;;;5076833;28;8877;-72
2022/11/22 17:03:11;;;;;;;;;4.00;4.00;;;;;;;;5079785;28;11422;-72
2022/11/22 17:05:36;;;;;;;;;1.25;1.25;;;;;;;;5081023;28;8814;-70
2022/11/22 17:08:02;;;;;;;;;4.00;4.00;;;;;;;;5075427;28;12225;-71
2022/11/22 17:10:30;;;;;;;;;2.00;1.00;;;;;;;;5062423;28;8808;-71
2022/11/22 17:12:55;;;;;;;;;1.75;1.50;;;;;;;;5079102;28;8790;-70
2022/11/22 17:15:22;;;;;;;;;3.50;2.00;;;;;;;;5096972;28;12233;-70
2022/11/22 17:17:47;;;;;;;;;1.00;1.00;;;;;;;;5099779;28;8834;-71
2022/11/22 17:20:12;;;;;;;;;4.00;4.00;;;;;;;;5099578;28;11424;-73
2022/11/22 17:22:39;;;;;;;;;2.00;2.00;;;;;;;;5100825;28;8805;-73
2022/11/22 17:25:05;;;;;;;;;1.75;1.00;;;;;;;;5098693;28;8799;-71
2022/11/22 17:27:30;;;;;;;;;1.75;1.00;;;;;;;;5099567;28;11424;-73
2022/11/22 17:29:55;;;;;;;;;3.75;3.00;;;;;;;;5097623;28;9664;-73
2022/11/22 17:32:21;;;;;;;;;2.00;2.00;;;;;;;;5098257;28;8942;-73
2022/11/22 17:34:46;;;;;;;;;0.00;0.00;;;;;;;;5098149;28;8835;-73
2022/11/22 17:37:11;;;;;;;;;2.00;2.00;;;;;;;;5099787;28;8890;-73
2022/11/22 17:39:37;;;;;;;;;2.00;2.00;;;;;;;;5100503;28;8786;-74
2022/11/22 17:42:02;;;;;;;;;2.00;2.00;;;;;;;;5096625;28;8864;-75
2022/11/22 17:44:27;;;;;;;;;1.00;1.00;;;;;;;;5095052;28;9518;-74
2022/11/22 17:46:53;;;;;;;;;4.00;2.00;;;;;;;;5097330;28;9765;-73
2022/11/22 17:49:19;;;;;;;;;5.00;3.50;;;;;;;;5096317;28;8812;-76
2022/11/22 17:51:45;;;;;;;;;2.50;2.00;;;;;;;;5095687;28;8796;-73
2022/11/22 17:54:10;;;;;;;;;8.00;7.00;;;;;;;;5090043;28;9027;-73
2022/11/22 17:56:36;;;;;;;;;2.50;2.50;;;;;;;;5089466;28;11459;-74
2022/11/22 17:59:02;;;;;;;;;5.00;4.00;;;;;;;;5091156;28;8812;-74
2022/11/22 18:01:27;;;;;;;;;3.50;3.50;;;;;;;;5089929;28;8942;-74
2022/11/22 18:03:52;;;;;;;;;4.75;3.00;;;;;;;;5089432;28;8799;-75
2022/11/22 18:06:20;;;;;;;;;6.00;4.00;;;;;;;;5088926;28;8912;-74
2022/11/22 18:08:45;;;;;;;;;4.75;4.00;;;;;;;;5098299;22;8899;-75
2022/11/22 18:11:11;;;;;;;;;1.75;1.00;;;;;;;;5088506;28;11563;-73
2022/11/22 18:13:37;;;;;;;;;2.75;1.00;;;;;;;;5088244;28;8799;-73
2022/11/22 18:16:04;;;;;;;;;1.00;1.00;;;;;;;;5088860;28;8800;-73
2022/11/22 18:18:31;;;;;;;;;2.00;2.00;;;;;;;;5077265;28;12215;-75
2022/11/22 18:20:56;;;;;;;;;6.50;6.00;;;;;;;;5063134;28;11424;-75
2022/11/22 18:23:22;;;;;;;;;4.00;4.00;;;;;;;;5067909;28;12176;-75
2022/11/22 18:25:47;;;;;;;;;4.00;4.00;;;;;;;;5067806;28;8828;-75
2022/11/22 18:28:13;;;;;;;;;4.75;4.00;;;;;;;;5068657;28;11414;-75
2022/11/22 18:30:40;;;;;;;;;6.00;5.50;;;;;;;;5068935;28;8781;-74
2022/11/22 18:33:05;;;;;;;;;4.50;4.00;;;;;;;;5039817;28;8851;-75
2022/11/22 18:35:31;;;;;;;;;4.00;2.00;;;;;;;;5062572;28;11419;-74
2022/11/22 18:37:56;;;;;;;;;4.75;2.00;;;;;;;;5067436;28;8826;-76
2022/11/22 18:40:21;;;;;;;;;4.00;4.00;;;;;;;;5055858;28;8791;-73
2022/11/22 18:42:49;;;;;;;;;7.00;4.75;;;;;;;;5053184;28;8793;-73
2022/11/22 18:45:14;;;;;;;;;6.00;4.00;;;;;;;;5055553;28;8804;-73
2022/11/22 18:47:39;;;;;;;;;7.50;5.00;;;;;;;;5053084;28;11432;-74
2022/11/22 18:50:05;;;;;;;;;5.00;5.00;;;;;;;;5053775;28;8823;-74
2022/11/22 18:52:33;;;;;;;;;4.75;4.25;;;;;;;;5066002;28;8828;-74
2022/11/22 18:54:59;;;;;;;;;4.25;4.25;;;;;;;;5066563;28;8810;-73
2022/11/22 18:57:24;;;;;;;;;4.75;4.25;;;;;;;;5066323;28;11380;-73
2022/11/22 18:59:49;;;;;;;;;1.75;1.00;;;;;;;;5046243;28;8800;-70
2022/11/22 19:02:14;;;;;;;;;4.75;4.75;;;;;;;;5059504;28;8820;-68
2022/11/22 19:04:40;;;;;;;;;4.75;3.00;;;;;;;;5063845;28;8922;-67
2022/11/22 19:07:05;;;;;;;;;3.00;3.00;;;;;;;;5063975;28;8894;-67
2022/11/22 19:09:30;;;;;;;;;8.00;4.00;;;;;;;;5064091;28;8815;-66
2022/11/22 19:11:56;;;;;;;;;9.25;7.00;;;;;;;;5059930;28;8812;-66
2022/11/22 19:14:21;;;;;;;;;3.25;2.00;;;;;;;;5062312;28;8897;-72
2022/11/22 19:16:47;;;;;;;;;5.00;4.00;;;;;;;;5059020;28;11392;-70
2022/11/22 19:19:12;;;;;;;;;6.00;6.00;;;;;;;;5043088;28;8932;-70
2022/11/22 19:21:37;;;;;;;;;8.75;8.75;;;;;;;;5059580;28;8804;-70
2022/11/22 19:24:03;;;;;;;;;5.50;4.50;;;;;;;;5043858;28;8820;-69
2022/11/22 19:26:28;;;;;;;;;2.50;2.00;;;;;;;;5062811;28;8784;-70
2022/11/22 19:28:54;;;;;;;;;6.50;4.75;;;;;;;;5058981;28;8788;-70
2022/11/22 19:31:20;;;;;;;;;4.25;4.00;;;;;;;;5060782;28;8873;-69
2022/11/22 19:33:46;;;;;;;;;7.25;5.00;;;;;;;;5060067;28;9588;-68
2022/11/22 19:36:13;;;;;;;;;10.00;9.25;;;;;;;;5060528;28;11358;-70
2022/11/22 19:38:38;;;;;;;;;10.50;8.00;;;;;;;;5063503;28;8840;-71
2022/11/22 19:41:17;;;;;;;;;10.75;9.00;;;;;;;;5060049;28;11391;-70
2022/11/22 19:43:43;;;;;;;;;7.50;6.50;;;;;;;;5059985;28;8780;-71
2022/11/22 19:46:08;;;;;;;;;8.50;8.50;;;;;;;;5060081;28;11412;-71
2022/11/22 19:48:36;;;;;;;;;10.00;7.00;;;;;;;;5058616;28;8780;-70
2022/11/22 19:51:05;;;;;;;;;6.75;5.00;;;;;;;;5059933;28;8843;-70
2022/11/22 19:53:31;;;;;;;;;10.00;8.00;;;;;;;;5060526;28;11423;-71
2022/11/22 19:56:00;;;;;;;;;13.25;11.50;;;;;;;;5067517;28;11546;-70
2022/11/22 19:58:26;;;;;;;;;8.50;8.50;;;;;;;;5070858;28;8782;-70
2022/11/22 20:00:51;;;;;;;;;7.00;5.00;;;;;;;;5070777;28;11511;-72
2022/11/22 20:03:16;;;;;;;;;13.00;7.50;;;;;;;;5070766;28;8810;-74
2022/11/22 20:05:41;;;;;;;;;7.25;6.50;;;;;;;;5059606;28;8828;-74
2022/11/22 20:08:07;;;;;;;;;8.00;6.50;;;;;;;;5061825;28;8962;-73
2022/11/22 20:10:32;;;;;;;;;6.00;6.00;;;;;;;;5070636;28;8812;-75
2022/11/22 20:12:57;;;;;;;;;6.00;6.00;;;;;;;;5045335;28;8852;-73
2022/11/22 20:15:23;;;;;;;;;6.00;4.00;;;;;;;;5066635;28;9011;-71
2022/11/22 20:17:48;;;;;;;;;9.75;8.50;;;;;;;;5052812;28;8768;-71
2022/11/22 20:20:13;;;;;;;;;11.00;9.00;;;;;;;;5054801;28;8798;-71
2022/11/22 20:22:39;;;;;;;;;12.50;8.50;;;;;;;;5067383;28;8794;-75
2022/11/22 20:25:04;;;;;;;;;9.00;9.00;;;;;;;;5052548;28;8839;-70
2022/11/22 20:27:30;;;;;;;;;9.25;8.50;;;;;;;;5090342;28;9565;-71
2022/11/22 20:29:55;;;;;;;;;9.00;8.50;;;;;;;;5090507;28;9493;-71
2022/11/22 20:32:21;;;;;;;;;11.00;8.00;;;;;;;;5055089;28;8848;-71
2022/11/22 20:34:47;;;;;;;;;9.50;8.25;;;;;;;;5057501;28;8852;-71
2022/11/22 20:37:12;;;;;;;;;10.00;9.00;;;;;;;;5066182;28;11378;-70
2022/11/22 20:39:37;;;;;;;;;9.50;6.50;;;;;;;;5056717;28;8824;-75
2022/11/22 20:42:03;;;;;;;;;4.50;2.00;;;;;;;;5050783;28;8784;-74
2022/11/22 20:44:28;;;;;;;;;12.00;11.00;;;;;;;;5050817;28;8784;-75
2022/11/22 20:46:54;;;;;;;;;11.50;9.00;;;;;;;;5050588;28;8885;-74
2022/11/22 20:49:19;;;;;;;;;9.50;9.50;;;;;;;;5050445;28;8931;-73
2022/11/22 20:51:44;;;;;;;;;13.00;9.25;;;;;;;;5058449;28;8935;-74
2022/11/22 20:54:09;;;;;;;;;10.75;10.75;;;;;;;;5069782;28;8818;-74
2022/11/22 20:56:35;;;;;;;;;10.75;10.00;;;;;;;;5070019;28;8790;-74
2022/11/22 20:59:00;;;;;;;;;10.75;10.25;;;;;;;;5069299;28;8798;-73
2022/11/22 21:01:27;;;;;;;;;12.00;12.00;;;;;;;;5062816;28;8892;-74
2022/11/22 21:03:53;;;;;;;;;9.50;8.75;;;;;;;;5050294;28;9005;-76
2022/11/22 21:06:19;;;;;;;;;10.00;7.75;;;;;;;;5032072;28;11433;-76
2022/11/22 21:08:45;;;;;;;;;9.25;9.00;;;;;;;;5064607;28;11386;-75
2022/11/22 21:11:14;;;;;;;;;10.00;10.00;;;;;;;;5071607;28;8834;-75
2022/11/22 21:13:40;;;;;;;;;12.25;9.75;;;;;;;;5090246;28;8888;-75
2022/11/22 21:16:06;;;;;;;;;10.00;7.50;;;;;;;;5090014;28;11566;-73
2022/11/22 21:18:32;;;;;;;;;12.75;12.75;;;;;;;;5090323;28;8796;-74
2022/11/22 21:21:24;;;;;;;;;7.75;7.75;;;;;;;;5087749;28;11402;-74
2022/11/22 21:23:50;;;;;;;;;10.00;10.00;;;;;;;;5062171;28;8910;-74
2022/11/22 21:26:16;;;;;;;;;6.50;6.50;;;;;;;;5051456;28;11462;-74
2022/11/22 21:28:41;;;;;;;;;13.25;10.00;;;;;;;;5069721;28;11386;-73
2022/11/22 21:31:06;;;;;;;;;12.75;12.25;;;;;;;;5069817;28;9480;-73
2022/11/22 21:33:32;;;;;;;;;9.25;9.25;;;;;;;;5069973;28;8801;-73
2022/11/22 21:36:01;;;;;;;;;13.25;10.25;;;;;;;;5069441;28;8952;-73
2022/11/22 21:38:27;;;;;;;;;12.25;12.00;;;;;;;;5074626;28;11411;-73
2022/11/22 21:40:53;;;;;;;;;12.00;10.50;;;;;;;;5071466;28;11498;-74
2022/11/22 21:43:19;;;;;;;;;10.25;10.25;;;;;;;;5090125;28;8784;-73
2022/11/22 21:45:44;;;;;;;;;13.75;9.50;;;;;;;;5089950;28;11389;-73
2022/11/22 21:48:09;;;;;;;;;12.50;10.00;;;;;;;;5090313;28;8783;-76
2022/11/22 21:50:35;;;;;;;;;15.50;11.50;;;;;;;;5071833;28;8966;-77
2022/11/22 21:53:00;;;;;;;;;13.00;12.00;;;;;;;;5090509;28;8788;-75
2022/11/22 21:55:25;;;;;;;;;14.00;13.00;;;;;;;;5090143;28;8811;-75
2022/11/22 21:57:50;;;;;;;;;17.50;14.75;;;;;;;;5071536;28;9558;-75
2022/11/22 22:00:16;;;;;;;;;13.00;11.00;;;;;;;;5071712;28;8803;-75
2022/11/22 22:02:41;;;;;;;;;9.75;9.25;;;;;;;;5071649;28;8876;-75
2022/11/22 22:05:07;;;;;;;;;13.75;13.75;;;;;;;;5089358;28;8807;-75
2022/11/22 22:10:04;;;;;;;;;10.00;7.00;;;;;;;;5048338;28;8981;-74
2022/11/22 22:12:29;;;;;;;;;16.50;11.50;;;;;;;;5050303;28;11514;-75
2022/11/22 22:14:55;;;;;;;;;14.00;10.50;;;;;;;;5031992;28;8905;-76
2022/11/22 22:17:20;;;;;;;;;8.00;7.50;;;;;;;;5032060;28;8937;-75
2022/11/22 22:19:48;;;;;;;;;10.00;9.75;;;;;;;;5049871;28;8802;-74
2022/11/22 22:22:13;;;;;;;;;6.75;5.75;;;;;;;;5050620;28;8945;-74
2022/11/22 22:24:39;;;;;;;;;9.25;7.00;;;;;;;;5050394;28;11632;-75
2022/11/22 22:27:04;;;;;;;;;11.00;9.00;;;;;;;;5050167;28;8821;-74
2022/11/22 22:29:29;;;;;;;;;10.25;9.75;;;;;;;;5050048;28;8822;-74
2022/11/22 22:31:54;;;;;;;;;11.25;9.25;;;;;;;;5050133;28;8826;-73
2022/11/22 22:34:20;;;;;;;;;11.00;11.00;;;;;;;;5049288;28;8947;-73
2022/11/22 22:36:45;;;;;;;;;12.50;10.25;;;;;;;;5050153;28;8815;-74
2022/11/22 22:39:10;;;;;;;;;12.50;9.75;;;;;;;;5050093;28;8930;-73
2022/11/22 22:41:35;;;;;;;;;12.50;9.25;;;;;;;;5050131;28;8877;-73
2022/11/22 22:44:01;;;;;;;;;13.00;13.00;;;;;;;;5050117;28;8798;-73
2022/11/22 22:46:26;;;;;;;;;14.00;10.75;;;;;;;;5031997;28;8883;-74
2022/11/22 22:48:53;;;;;;;;;9.75;9.75;;;;;;;;5049687;28;8802;-74
2022/11/22 22:51:18;;;;;;;;;12.50;12.50;;;;;;;;5049968;28;8889;-74
2022/11/22 22:53:44;;;;;;;;;12.00;12.00;;;;;;;;5049686;28;11540;-75
2022/11/22 22:56:10;;;;;;;;;11.00;11.00;;;;;;;;5049689;28;9565;-73
2022/11/22 22:58:35;;;;;;;;;10.00;10.00;;;;;;;;5049947;28;8890;-74
2022/11/22 23:01:07;;;;;;;;;13.00;13.00;;;;;;;;5032124;28;8826;-74
2022/11/22 23:03:32;;;;;;;;;13.50;10.25;;;;;;;;5049729;28;8798;-73
2022/11/22 23:05:58;;;;;;;;;12.00;12.00;;;;;;;;5031614;28;11577;-75
2022/11/22 23:08:23;;;;;;;;;10.00;9.50;;;;;;;;5069327;22;8864;-76
2022/11/22 23:10:48;;;;;;;;;12.50;12.25;;;;;;;;5070030;28;8784;-75
2022/11/22 23:13:13;;;;;;;;;11.50;10.50;;;;;;;;5051580;28;8804;-75
2022/11/22 23:15:40;;;;;;;;;13.00;10.00;;;;;;;;5069845;28;8812;-77
2022/11/22 23:18:05;;;;;;;;;25.00;23.00;;;;;;;;5069853;28;8784;-76
2022/11/22 23:20:30;;;;;;;;;12.75;8.50;;;;;;;;5069646;28;11458;-77
2022/11/22 23:22:55;;;;;;;;;9.50;9.50;;;;;;;;5072374;28;8941;-76
2022/11/22 23:25:21;;;;;;;;;12.00;9.00;;;;;;;;5073446;28;8905;-75
2022/11/22 23:27:46;;;;;;;;;9.00;9.00;;;;;;;;5073457;28;8757;-77
2022/11/22 23:30:11;;;;;;;;;10.50;9.00;;;;;;;;5072873;28;8832;-76
2022/11/22 23:32:36;;;;;;;;;11.50;9.50;;;;;;;;5073174;28;8792;-75
2022/11/22 23:35:02;;;;;;;;;2.75;1.50;;;;;;;;5073166;28;8844;-75
2022/11/22 23:37:27;;;;;;;;;8.50;8.50;;;;;;;;5073523;28;8865;-75
2022/11/22 23:39:52;;;;;;;;;10.50;8.00;;;;;;;;5073227;28;8808;-75
2022/11/22 23:42:17;;;;;;;;;8.75;8.00;;;;;;;;5055243;28;8796;-74
2022/11/22 23:44:43;;;;;;;;;9.00;8.00;;;;;;;;5055191;28;8963;-76
2022/11/22 23:47:08;;;;;;;;;7.25;7.25;;;;;;;;5072527;28;9487;-75
2022/11/22 23:49:33;;;;;;;;;9.00;7.75;;;;;;;;5073118;28;8784;-75
2022/11/22 23:51:59;;;;;;;;;6.00;6.00;;;;;;;;5073063;28;9757;-75
2022/11/22 23:54:24;;;;;;;;;9.00;5.75;;;;;;;;5072765;28;8816;-76
